Terminal Aerodrome Forecast
Issued by NWS

Home | Current Version | Previous Version | Text Only | Print | Product List | Glossary Off
Versions: 1 2 3 4 5 6 7 8 9 10 11 12 13 14 15 16 17 18 19 20 21 22 23 24 25 26 27 28 29 30 31 32

000
FTUS43 KLOT 271502 AAB
TAFORD
TAF AMD
KORD 271502Z 2715/2818 11007KT P6SM SCT008 BKN025 OVC080
      TEMPO 2715/2717 BKN008
     FM271800 16009KT P6SM SCT012 BKN035
     FM272000 22011KT P6SM VCSH SCT035 BKN050
     FM272300 22007KT P6SM SCT040 BKN200
     FM280900 35005KT P6SM SCT015 OVC030
     FM281200 03007KT P6SM BKN035=

USA.gov is the U.S. government's official web portal to all federal, state and local government web resources and services.